Terminal Aerodrome Forecast
Issued by NWS

Home | Current Version | Previous Version | Text Only | Print | Product List | Glossary On
Versions: 1 2 3 4 5 6 7 8 9 10 11 12
000
FTUS46 KSGX 301100
TAFONT
TAF
KONT 301120Z 3012/3118 VRB04KT P6SM SCT200
     FM302100 26008KT P6SM BKN200
     FM310400 24005KT P6SM SCT200
     FM311000 VRB04KT 5SM BR BKN009
     FM311500 VRB03KT 6SM HZ SCT010 SCT200=

USA.gov is the U.S. government's official web portal to all federal, state and local government web resources and services.